Monte — V2FS2 — position and weather

sailwx.info

Track history (hours):
 
Tides and Currents Weather Stations Pressure Air Temp Water Temp Dewpoint Dewpoint Depression Visibility Wind Speed Wind Dir Waves Ship Positions

Monte

Last reported at 2014-Sep-15 11:33 UTC. Time now 2014-Sep-17 15:41 UTC.
Position N 59°27' E 005°14'.

Length 104 m; draft 6.4 m.

Type: Cargo ship. MMSI: 305777000.

Date/timePositionNaut miles runAvg speedWind from/ knotsBaromVisibWave heightAir tempDewpointWater temp
2014-Sep-15 11:33N 59°27' E 005°14'1210.2
2014-Sep-15 10:22N 59°15' E 005°21'8 9.4
2014-Sep-15 09:33N 59°07' E 005°20'1010.1
2014-Sep-15 08:33N 58°57' E 005°21'1010.5
2014-Sep-15 07:33N 58°47' E 005°24'2110.6
2014-Sep-15 05:32N 58°26' E 005°32'1010.4
2014-Sep-15 04:33N 58°16' E 005°39'237 9.1
2014-Sep-14 02:33N 54°20' E 005°04'10 9.8
2014-Sep-14 01:32N 54°10' E 004°60'4010.0
2014-Sep-13 21:33N 53°31' E 004°46'2310.9
2014-Sep-13 19:29N 53°11' E 004°31'1011.3
2014-Sep-13 18:33N 53°01' E 004°23'2410.6
2014-Sep-13 16:15N 52°41' E 004°00'7 9.9
2014-Sep-13 15:33N 52°36' E 003°53'82 8.9
2014-Sep-13 06:21N 51°36' E 002°22'911.1
2014-Sep-13 05:30N 51°29' E 002°11'1311.6
2014-Sep-13 04:24N 51°19' E 001°58'1416.2
2014-Sep-13 03:34N 51°09' E 001°44'380 9.6
2014-Sep-11 12:12N 47°43' W 006°26'55 9.6
2014-Sep-11 06:28N 46°54' W 007°03'29 9.9
2014-Sep-11 03:30N 46°28' W 007°23'45610.1
2014-Sep-09 06:11N 39°05' W 009°51'41 8.8
2014-Sep-09 01:29N 38°28' W 009°28'1010.5
2014-Sep-09 00:33N 38°22' W 009°17'10 9.8
2014-Sep-08 23:33N 38°21' W 009°05'12 9.0
2014-Sep-08 22:16N 38°30' W 008°55'3 3.3
2014-Sep-08 21:18N 38°30' W 008°51'0 0.0
2014-Sep-08 20:33N 38°30' W 008°51'0 0.0
2014-Sep-08 19:24N 38°30' W 008°51'0 0.0
2014-Sep-08 18:18N 38°30' W 008°51'0 0.0
2014-Sep-08 17:21N 38°30' W 008°51'0 0.0
2014-Sep-08 16:33N 38°30' W 008°51'0 0.0
2014-Sep-08 15:33N 38°30' W 008°51'0 0.0
2014-Sep-08 14:14N 38°30' W 008°51'0 0.0
2014-Sep-08 13:29N 38°30' W 008°51'0 0.0
2014-Sep-08 12:29N 38°30' W 008°51'0 0.0
2014-Sep-08 11:26N 38°30' W 008°51'0 0.0
2014-Sep-08 10:23N 38°30' W 008°51'0 0.0
2014-Sep-08 09:32N 38°30' W 008°51'0 0.0
2014-Sep-08 08:32N 38°30' W 008°51'0 0.0
2014-Sep-08 07:32N 38°30' W 008°51'0 0.0
2014-Sep-08 06:26N 38°30' W 008°51'0 0.0
2014-Sep-08 05:26N 38°30' W 008°51'0 0.0
2014-Sep-08 04:32N 38°30' W 008°51'0 0.0
2014-Sep-08 03:32N 38°30' W 008°51'0 0.0
2014-Sep-08 02:32N 38°30' W 008°51'0 0.0
2014-Sep-08 01:32N 38°30' W 008°51'0 0.0
2014-Sep-08 00:32N 38°30' W 008°51'0 0.0
2014-Sep-07 23:32N 38°30' W 008°51'0 0.0
2014-Sep-07 21:32N 38°30' W 008°51'0 0.0
2014-Sep-07 20:26N 38°30' W 008°51'0 0.0
2014-Sep-07 18:26N 38°30' W 008°51'0 0.0
2014-Sep-07 17:33N 38°30' W 008°51'0 0.0
2014-Sep-07 16:33N 38°30' W 008°51'5 4.3
2014-Sep-07 15:21N 38°28' W 008°57'6 7.8
2014-Sep-07 14:33N 38°22' W 008°60'10 9.6
2014-Sep-07 13:31N 38°12' W 009°00'  
Track history (hours):
 
Tides and Currents Weather Stations Pressure Air Temp Water Temp Dewpoint Dewpoint Depression Visibility Wind Speed Wind Dir Waves Ship Positions

Monte

Last reported at 2014-Sep-15 11:33 UTC. Time now 2014-Sep-17 15:41 UTC.
Position N 59°27' E 005°14'.

Length 104 m; draft 6.4 m.

Type: Cargo ship. MMSI: 305777000.

Date/timePositionNaut miles runAvg speedWind from/ knotsBaromVisibWave heightAir tempDewpointWater temp
2014-Sep-15 11:33N 59°27' E 005°14'1210.2
2014-Sep-15 10:22N 59°15' E 005°21'8 9.4
2014-Sep-15 09:33N 59°07' E 005°20'1010.1
2014-Sep-15 08:33N 58°57' E 005°21'1010.5
2014-Sep-15 07:33N 58°47' E 005°24'2110.6
2014-Sep-15 05:32N 58°26' E 005°32'1010.4
2014-Sep-15 04:33N 58°16' E 005°39'237 9.1
2014-Sep-14 02:33N 54°20' E 005°04'10 9.8
2014-Sep-14 01:32N 54°10' E 004°60'4010.0
2014-Sep-13 21:33N 53°31' E 004°46'2310.9
2014-Sep-13 19:29N 53°11' E 004°31'1011.3
2014-Sep-13 18:33N 53°01' E 004°23'2410.6
2014-Sep-13 16:15N 52°41' E 004°00'7 9.9
2014-Sep-13 15:33N 52°36' E 003°53'82 8.9
2014-Sep-13 06:21N 51°36' E 002°22'911.1
2014-Sep-13 05:30N 51°29' E 002°11'1311.6
2014-Sep-13 04:24N 51°19' E 001°58'1416.2
2014-Sep-13 03:34N 51°09' E 001°44'380 9.6
2014-Sep-11 12:12N 47°43' W 006°26'55 9.6
2014-Sep-11 06:28N 46°54' W 007°03'29 9.9
2014-Sep-11 03:30N 46°28' W 007°23'45610.1
2014-Sep-09 06:11N 39°05' W 009°51'41 8.8
2014-Sep-09 01:29N 38°28' W 009°28'1010.5
2014-Sep-09 00:33N 38°22' W 009°17'10 9.8
2014-Sep-08 23:33N 38°21' W 009°05'12 9.0
2014-Sep-08 22:16N 38°30' W 008°55'3 3.3
2014-Sep-08 21:18N 38°30' W 008°51'0 0.0
2014-Sep-08 20:33N 38°30' W 008°51'0 0.0
2014-Sep-08 19:24N 38°30' W 008°51'0 0.0
2014-Sep-08 18:18N 38°30' W 008°51'0 0.0
2014-Sep-08 17:21N 38°30' W 008°51'0 0.0
2014-Sep-08 16:33N 38°30' W 008°51'0 0.0
2014-Sep-08 15:33N 38°30' W 008°51'0 0.0
2014-Sep-08 14:14N 38°30' W 008°51'0 0.0
2014-Sep-08 13:29N 38°30' W 008°51'0 0.0
2014-Sep-08 12:29N 38°30' W 008°51'0 0.0
2014-Sep-08 11:26N 38°30' W 008°51'0 0.0
2014-Sep-08 10:23N 38°30' W 008°51'0 0.0
2014-Sep-08 09:32N 38°30' W 008°51'0 0.0
2014-Sep-08 08:32N 38°30' W 008°51'0 0.0
2014-Sep-08 07:32N 38°30' W 008°51'0 0.0
2014-Sep-08 06:26N 38°30' W 008°51'0 0.0
2014-Sep-08 05:26N 38°30' W 008°51'0 0.0
2014-Sep-08 04:32N 38°30' W 008°51'0 0.0
2014-Sep-08 03:32N 38°30' W 008°51'0 0.0
2014-Sep-08 02:32N 38°30' W 008°51'0 0.0
2014-Sep-08 01:32N 38°30' W 008°51'0 0.0
2014-Sep-08 00:32N 38°30' W 008°51'0 0.0
2014-Sep-07 23:32N 38°30' W 008°51'0 0.0
2014-Sep-07 21:32N 38°30' W 008°51'0 0.0
2014-Sep-07 20:26N 38°30' W 008°51'0 0.0
2014-Sep-07 18:26N 38°30' W 008°51'0 0.0
2014-Sep-07 17:33N 38°30' W 008°51'0 0.0
2014-Sep-07 16:33N 38°30' W 008°51'5 4.3
2014-Sep-07 15:21N 38°28' W 008°57'6 7.8
2014-Sep-07 14:33N 38°22' W 008°60'10 9.6
2014-Sep-07 13:31N 38°12' W 009°00'  

Dump ship's entire track history